Time;durP1;ratioP1;P1;durP2;ratioP2;P2;SDS_P1;SDS_P2;PMS_P1;PMS_P2;Temp;Humidity;BMP_temperature;BMP_pressure;BME280_temperature;BME280_humidity;BME280_pressure;Samples;Min_cycle;Max_cycle;Signal;HPM_P1;HPM_P2
2022/03/31 00:02:46;;;;;;;32.72;20.38;;;;;;;;;;10358773;28;20405;-91
2022/03/31 00:07:49;;;;;;;33.40;20.73;;;;;;;;;;10355567;28;20458;-92
2022/03/31 00:12:53;;;;;;;34.63;21.17;;;;;;;;;;10372386;28;20405;-92
2022/03/31 00:17:55;;;;;;;34.43;21.20;;;;;;;;;;10390545;28;20813;-91
2022/03/31 00:22:57;;;;;;;33.92;20.10;;;;;;;;;;10371338;28;20423;-92
2022/03/31 00:28:03;;;;;;;33.95;21.00;;;;;;;;;;10355208;28;20460;-92
2022/03/31 00:33:05;;;;;;;37.38;21.23;;;;;;;;;;10361324;28;20418;-93
2022/03/31 00:38:07;;;;;;;31.83;21.07;;;;;;;;;;10403109;28;20397;-92
2022/03/31 00:43:11;;;;;;;30.20;20.57;;;;;;;;;;10385151;28;20950;-92
2022/03/31 00:48:13;;;;;;;31.33;20.48;;;;;;;;;;10369812;28;20478;-92
2022/03/31 00:53:15;;;;;;;33.90;20.60;;;;;;;;;;10363063;28;20450;-93
2022/03/31 00:58:20;;;;;;;34.35;19.42;;;;;;;;;;10353278;28;21140;-92
2022/03/31 01:03:22;;;;;;;32.07;19.10;;;;;;;;;;10353532;28;20542;-92
2022/03/31 01:08:23;;;;;;;31.10;18.15;;;;;;;;;;10364962;28;21136;-93
2022/03/31 01:13:27;;;;;;;34.03;18.55;;;;;;;;;;10358552;28;20446;-92
2022/03/31 01:18:29;;;;;;;30.98;17.60;;;;;;;;;;10358919;28;20438;-92
2022/03/31 01:23:32;;;;;;;31.73;17.07;;;;;;;;;;10382546;28;20446;-93
2022/03/31 01:28:36;;;;;;;29.63;16.80;;;;;;;;;;10357085;28;20510;-92
2022/03/31 01:33:40;;;;;;;29.05;17.08;;;;;;;;;;10349160;28;20787;-92
2022/03/31 01:38:44;;;;;;;30.35;17.42;;;;;;;;;;10357366;28;20426;-91
2022/03/31 01:43:46;;;;;;;36.25;17.83;;;;;;;;;;10397151;28;20399;-91
2022/03/31 01:48:47;;;;;;;31.50;17.20;;;;;;;;;;10369470;28;20427;-90
2022/03/31 01:53:51;;;;;;;31.33;17.13;;;;;;;;;;10352354;28;20502;-90
2022/03/31 01:58:53;;;;;;;31.50;18.23;;;;;;;;;;10356178;28;20456;-89
2022/03/31 02:03:55;;;;;;;31.48;17.30;;;;;;;;;;10354454;28;20413;-88
2022/03/31 02:08:58;;;;;;;29.60;17.13;;;;;;;;;;10375292;28;20421;-89
2022/03/31 02:14:00;;;;;;;30.00;16.60;;;;;;;;;;10376290;28;20454;-89
2022/03/31 02:19:02;;;;;;;26.58;15.65;;;;;;;;;;10377897;28;20435;-89
2022/03/31 02:24:06;;;;;;;31.73;17.90;;;;;;;;;;10382113;28;20505;-89
2022/03/31 02:29:08;;;;;;;34.60;19.00;;;;;;;;;;10379711;28;20415;-88
2022/03/31 02:34:11;;;;;;;33.35;20.67;;;;;;;;;;10384528;28;20442;-89
2022/03/31 02:39:15;;;;;;;35.20;21.65;;;;;;;;;;10385132;28;20405;-88
2022/03/31 02:44:17;;;;;;;38.25;23.25;;;;;;;;;;10382918;28;20417;-89
2022/03/31 02:49:20;;;;;;;39.80;23.85;;;;;;;;;;10384900;28;20420;-88
2022/03/31 02:59:44;;;;;;;39.47;25.02;;;;;;;;;;10381533;28;20655;-88
2022/03/31 03:04:46;;;;;;;42.70;25.27;;;;;;;;;;10382410;28;20422;-88
2022/03/31 03:09:49;;;;;;;41.13;25.05;;;;;;;;;;10385529;28;20397;-88
2022/03/31 03:14:51;;;;;;;38.67;23.70;;;;;;;;;;10370322;28;20981;-88
2022/03/31 03:19:53;;;;;;;40.33;24.75;;;;;;;;;;10377360;28;20504;-89
2022/03/31 03:24:56;;;;;;;40.42;24.90;;;;;;;;;;10379853;28;20510;-89
2022/03/31 03:29:58;;;;;;;41.05;24.52;;;;;;;;;;10383860;28;20437;-89
2022/03/31 03:35:00;;;;;;;43.97;25.63;;;;;;;;;;10382639;28;20443;-89
2022/03/31 03:40:04;;;;;;;41.35;24.45;;;;;;;;;;10372223;28;20415;-89
2022/03/31 03:45:08;;;;;;;40.00;24.52;;;;;;;;;;10375833;28;20427;-89
2022/03/31 03:50:11;;;;;;;39.70;24.63;;;;;;;;;;10386300;28;20493;-89
2022/03/31 03:55:14;;;;;;;39.78;24.75;;;;;;;;;;10371936;28;20419;-90
2022/03/31 04:00:18;;;;;;;44.60;24.42;;;;;;;;;;10372903;28;20507;-90
2022/03/31 04:05:20;;;;;;;42.20;24.47;;;;;;;;;;10351409;28;20411;-89
2022/03/31 04:10:24;;;;;;;38.67;24.90;;;;;;;;;;10369441;28;20419;-89
2022/03/31 04:15:26;;;;;;;40.55;25.80;;;;;;;;;;10369147;28;20419;-89
2022/03/31 04:20:28;;;;;;;36.92;24.95;;;;;;;;;;10364783;28;20437;-89
2022/03/31 04:25:31;;;;;;;40.17;24.08;;;;;;;;;;10369577;28;20946;-88
2022/03/31 04:30:33;;;;;;;38.85;23.10;;;;;;;;;;10366723;28;20497;-88
2022/03/31 04:35:36;;;;;;;38.65;23.92;;;;;;;;;;10362186;28;20824;-88
2022/03/31 04:40:39;;;;;;;37.88;23.35;;;;;;;;;;10368991;28;20502;-88
2022/03/31 04:45:41;;;;;;;36.53;22.77;;;;;;;;;;10375653;28;20454;-88
2022/03/31 04:50:43;;;;;;;36.90;23.13;;;;;;;;;;10376217;28;20491;-89
2022/03/31 04:55:47;;;;;;;35.53;23.17;;;;;;;;;;10360716;28;20958;-88
2022/03/31 05:00:49;;;;;;;41.33;26.60;;;;;;;;;;10358969;28;20918;-88
2022/03/31 05:05:50;;;;;;;40.60;25.40;;;;;;;;;;10356974;28;20429;-88
2022/03/31 05:10:54;;;;;;;40.30;24.70;;;;;;;;;;10361095;28;20490;-87
2022/03/31 05:15:56;;;;;;;42.58;26.58;;;;;;;;;;10363871;28;21322;-89
2022/03/31 05:20:58;;;;;;;42.33;27.10;;;;;;;;;;10369971;28;20514;-88
2022/03/31 05:26:01;;;;;;;39.58;27.15;;;;;;;;;;10366287;28;20497;-89
2022/03/31 05:31:03;;;;;;;46.25;27.77;;;;;;;;;;10364390;28;20498;-87
2022/03/31 05:36:05;;;;;;;40.40;27.00;;;;;;;;;;10356325;28;20509;-88
2022/03/31 05:41:08;;;;;;;43.40;26.50;;;;;;;;;;10352420;28;20410;-87
2022/03/31 05:46:10;;;;;;;46.40;28.75;;;;;;;;;;10367696;28;20431;-87
2022/03/31 05:51:12;;;;;;;46.77;27.40;;;;;;;;;;10372688;28;20500;-89
2022/03/31 05:56:15;;;;;;;44.83;28.20;;;;;;;;;;10366712;28;21336;-91
2022/03/31 06:01:17;;;;;;;42.03;27.60;;;;;;;;;;10346850;28;20498;-91
2022/03/31 06:06:19;;;;;;;43.40;26.83;;;;;;;;;;10332332;28;20425;-90
2022/03/31 06:11:23;;;;;;;45.97;27.45;;;;;;;;;;10359153;28;20517;-88
2022/03/31 06:16:25;;;;;;;46.25;28.08;;;;;;;;;;10356604;28;20434;-86
2022/03/31 06:21:28;;;;;;;42.80;28.48;;;;;;;;;;10360355;28;20426;-84
2022/03/31 06:26:31;;;;;;;46.58;27.55;;;;;;;;;;10363225;28;20442;-85
2022/03/31 06:31:33;;;;;;;44.63;28.10;;;;;;;;;;10359025;28;20511;-85
2022/03/31 06:36:35;;;;;;;43.60;28.25;;;;;;;;;;10358532;28;20407;-86
2022/03/31 06:41:39;;;;;;;46.60;29.27;;;;;;;;;;10364288;28;20433;-86
2022/03/31 06:46:41;;;;;;;44.08;29.52;;;;;;;;;;10363116;28;20436;-84
2022/03/31 06:51:44;;;;;;;45.30;29.30;;;;;;;;;;10369778;28;20436;-83
2022/03/31 06:56:49;;;;;;;48.67;30.33;;;;;;;;;;10371173;28;20409;-86
2022/03/31 07:01:52;;;;;;;43.10;29.85;;;;;;;;;;10370501;28;20416;-78
2022/03/31 07:06:54;;;;;;;43.97;29.77;;;;;;;;;;10365965;28;20430;-77
2022/03/31 07:11:57;;;;;;;47.22;30.58;;;;;;;;;;10369100;28;20494;-77
2022/03/31 07:16:59;;;;;;;46.85;30.10;;;;;;;;;;10348965;28;20417;-78
2022/03/31 07:22:01;;;;;;;42.20;27.25;;;;;;;;;;10353466;28;20407;-79
2022/03/31 07:27:04;;;;;;;38.90;24.90;;;;;;;;;;10355165;28;20423;-79
2022/03/31 07:32:07;;;;;;;37.10;24.47;;;;;;;;;;10344215;28;20455;-87
2022/03/31 07:37:09;;;;;;;39.13;26.02;;;;;;;;;;10351810;28;20409;-86
2022/03/31 07:42:12;;;;;;;37.55;24.77;;;;;;;;;;10348046;28;20418;-85
2022/03/31 07:47:14;;;;;;;35.83;21.95;;;;;;;;;;10349437;28;20498;-87
2022/03/31 07:52:16;;;;;;;34.63;22.97;;;;;;;;;;10353754;28;20417;-86
2022/03/31 07:57:19;;;;;;;35.08;22.25;;;;;;;;;;10353732;28;20500;-88
2022/03/31 08:02:22;;;;;;;34.95;23.35;;;;;;;;;;10350810;28;20519;-87
2022/03/31 08:07:24;;;;;;;36.10;22.23;;;;;;;;;;10362658;28;20423;-88
2022/03/31 08:12:27;;;;;;;36.05;23.15;;;;;;;;;;10360118;28;20771;-89
2022/03/31 08:17:30;;;;;;;33.60;22.50;;;;;;;;;;10349710;28;20413;-90
2022/03/31 08:22:32;;;;;;;36.60;23.40;;;;;;;;;;10349924;28;20441;-90
2022/03/31 08:27:37;;;;;;;38.88;22.80;;;;;;;;;;10362460;28;20431;-89
2022/03/31 08:32:42;;;;;;;36.57;23.57;;;;;;;;;;10356764;28;20417;-88
2022/03/31 08:37:44;;;;;;;31.73;22.77;;;;;;;;;;10354063;28;20940;-86
2022/03/31 08:42:48;;;;;;;31.33;21.13;;;;;;;;;;10341296;28;20414;-88
2022/03/31 08:47:53;;;;;;;31.60;21.25;;;;;;;;;;10350302;28;20436;-87
2022/03/31 08:52:55;;;;;;;28.58;19.77;;;;;;;;;;10344575;28;20422;-90
2022/03/31 08:57:58;;;;;;;33.67;21.48;;;;;;;;;;10350237;28;20422;-91
2022/03/31 09:03:03;;;;;;;29.95;20.52;;;;;;;;;;10353202;28;20438;-91
2022/03/31 09:08:09;;;;;;;29.23;19.33;;;;;;;;;;10348256;28;20427;-92
2022/03/31 09:13:24;;;;;;;30.48;20.83;;;;;;;;;;10352344;28;21222;-89
2022/03/31 09:18:27;;;;;;;27.80;19.17;;;;;;;;;;10361863;28;21257;-90
2022/03/31 09:23:32;;;;;;;26.70;17.95;;;;;;;;;;10363954;28;20962;-89
2022/03/31 09:28:36;;;;;;;23.63;16.50;;;;;;;;;;10377437;28;20489;-88
2022/03/31 09:33:40;;;;;;;23.53;15.87;;;;;;;;;;10359874;28;20425;-90
2022/03/31 09:38:53;;;;;;;17.10;11.18;;;;;;;;;;10363214;28;20406;-92
2022/03/31 09:43:59;;;;;;;19.00;11.83;;;;;;;;;;10362887;28;20429;-90
2022/03/31 09:49:12;;;;;;;13.30;7.80;;;;;;;;;;10360393;28;20607;-90
2022/03/31 09:54:22;;;;;;;9.52;7.00;;;;;;;;;;10363982;28;20418;-89
2022/03/31 09:59:36;;;;;;;11.43;7.00;;;;;;;;;;10316859;28;20411;-91
2022/03/31 10:04:46;;;;;;;8.90;5.90;;;;;;;;;;10355078;28;20411;-92
2022/03/31 10:09:53;;;;;;;9.98;6.82;;;;;;;;;;10363773;28;20743;-93
2022/03/31 10:15:03;;;;;;;10.68;6.95;;;;;;;;;;10358046;28;20420;-92
2022/03/31 10:20:12;;;;;;;9.63;6.35;;;;;;;;;;10361668;28;20767;-92
2022/03/31 10:25:19;;;;;;;9.60;7.38;;;;;;;;;;10361342;28;20409;-91
2022/03/31 10:30:28;;;;;;;8.95;6.72;;;;;;;;;;10377842;28;20419;-92
2022/03/31 10:35:37;;;;;;;10.50;6.20;;;;;;;;;;10373149;28;20509;-92
2022/03/31 10:40:44;;;;;;;11.37;7.80;;;;;;;;;;10356108;28;20489;-89
2022/03/31 10:45:54;;;;;;;11.50;7.25;;;;;;;;;;10352784;28;20419;-92
2022/03/31 10:51:08;;;;;;;7.97;4.83;;;;;;;;;;10384864;28;20525;-91
2022/03/31 10:56:20;;;;;;;7.07;4.23;;;;;;;;;;10393932;28;20407;-92
2022/03/31 11:01:28;;;;;;;7.78;4.25;;;;;;;;;;10363871;28;20395;-90
2022/03/31 11:06:33;;;;;;;7.47;4.40;;;;;;;;;;10351628;28;20456;-91
2022/03/31 11:11:42;;;;;;;7.97;4.38;;;;;;;;;;10365808;28;20439;-90
2022/03/31 11:16:59;;;;;;;8.57;3.73;;;;;;;;;;10343982;28;20496;-91
2022/03/31 11:22:02;;;;;;;6.68;3.80;;;;;;;;;;10340993;28;20395;-89
2022/03/31 11:27:05;;;;;;;6.17;3.20;;;;;;;;;;10348311;28;20454;-89
2022/03/31 11:32:10;;;;;;;6.43;4.13;;;;;;;;;;10338978;28;20484;-90
2022/03/31 11:37:18;;;;;;;9.10;4.50;;;;;;;;;;10337437;28;20407;-90
2022/03/31 11:42:21;;;;;;;5.40;4.43;;;;;;;;;;10371271;28;20504;-93
2022/03/31 11:47:27;;;;;;;4.75;3.67;;;;;;;;;;10350582;28;20442;-94
2022/03/31 11:52:31;;;;;;;3.88;2.70;;;;;;;;;;10373456;28;20420;-93
2022/03/31 11:57:34;;;;;;;2.90;1.80;;;;;;;;;;10391097;28;20415;-94
2022/03/31 12:02:37;;;;;;;1.70;1.60;;;;;;;;;;10356426;28;20927;-95
2022/03/31 12:07:39;;;;;;;2.60;1.50;;;;;;;;;;10348290;28;20925;-94
2022/03/31 12:12:47;;;;;;;3.15;1.40;;;;;;;;;;10352699;28;20498;-93
2022/03/31 12:18:03;;;;;;;1.90;1.23;;;;;;;;;;10345920;28;20409;-94
2022/03/31 12:23:18;;;;;;;1.08;0.90;;;;;;;;;;10340697;28;20469;-94
2022/03/31 12:28:23;;;;;;;1.02;0.93;;;;;;;;;;10353796;28;20488;-93
2022/03/31 12:33:30;;;;;;;2.00;0.80;;;;;;;;;;10349153;28;20916;-93
2022/03/31 12:38:41;;;;;;;1.35;1.10;;;;;;;;;;10351148;28;20413;-93
2022/03/31 12:43:43;;;;;;;2.15;1.10;;;;;;;;;;10342716;28;20433;-92
2022/03/31 12:48:54;;;;;;;2.35;0.82;;;;;;;;;;10367004;28;20501;-88
2022/03/31 12:53:56;;;;;;;2.10;1.50;;;;;;;;;;10353906;28;20424;-91
2022/03/31 12:58:58;;;;;;;2.72;1.60;;;;;;;;;;10349992;28;20419;-91
2022/03/31 13:04:02;;;;;;;1.80;1.60;;;;;;;;;;10326029;28;20424;-93
2022/03/31 13:09:04;;;;;;;3.43;3.20;;;;;;;;;;10345210;28;20423;-90
2022/03/31 13:14:06;;;;;;;4.90;4.50;;;;;;;;;;10354737;28;20471;-92
2022/03/31 13:19:09;;;;;;;2.17;1.90;;;;;;;;;;10341774;28;20439;-90
2022/03/31 13:24:13;;;;;;;1.45;1.35;;;;;;;;;;10343553;28;20412;-91
2022/03/31 13:29:14;;;;;;;1.55;1.45;;;;;;;;;;10347120;28;20449;-95
2022/03/31 13:34:24;;;;;;;1.67;1.13;;;;;;;;;;10329026;28;20495;-93
2022/03/31 13:39:27;;;;;;;3.50;2.50;;;;;;;;;;10347615;28;20423;-90
2022/03/31 13:44:30;;;;;;;7.82;5.50;;;;;;;;;;10346178;28;20516;-93
2022/03/31 13:49:33;;;;;;;1.95;1.75;;;;;;;;;;10348151;28;20423;-89
2022/03/31 13:54:38;;;;;;;2.30;1.70;;;;;;;;;;10351183;28;20407;-92
2022/03/31 14:05:01;;;;;;;1.70;1.60;;;;;;;;;;10352283;28;20413;-89
2022/03/31 14:10:04;;;;;;;2.53;1.40;;;;;;;;;;10336175;28;20479;-92
2022/03/31 14:15:06;;;;;;;1.60;1.50;;;;;;;;;;10355573;28;20415;-90
2022/03/31 14:20:11;;;;;;;3.10;1.23;;;;;;;;;;10347544;28;20572;-89
2022/03/31 14:25:14;;;;;;;2.45;1.52;;;;;;;;;;10350300;28;20419;-91
2022/03/31 14:30:16;;;;;;;1.75;1.20;;;;;;;;;;10349593;28;20422;-92
2022/03/31 14:35:19;;;;;;;2.43;1.93;;;;;;;;;;10349892;28;20419;-90
2022/03/31 14:40:21;;;;;;;1.83;1.30;;;;;;;;;;10354399;28;21250;-87
2022/03/31 14:45:23;;;;;;;2.17;1.10;;;;;;;;;;10353410;28;20403;-85
2022/03/31 14:50:29;;;;;;;1.77;1.50;;;;;;;;;;10351598;28;20434;-85
2022/03/31 14:55:31;;;;;;;2.80;2.00;;;;;;;;;;10345236;28;20419;-87
2022/03/31 15:00:34;;;;;;;2.13;1.70;;;;;;;;;;10343516;28;20424;-87
2022/03/31 15:05:37;;;;;;;2.47;1.10;;;;;;;;;;10345512;28;20407;-86
2022/03/31 15:15:58;;;;;;;2.57;1.30;;;;;;;;;;10353176;28;21295;-87
2022/03/31 15:21:03;;;;;;;1.30;1.20;;;;;;;;;;10351857;28;20428;-89
2022/03/31 15:26:06;;;;;;;1.53;1.20;;;;;;;;;;10343146;28;20418;-90
2022/03/31 15:31:08;;;;;;;1.57;1.00;;;;;;;;;;10356875;28;20424;-89
2022/03/31 15:36:13;;;;;;;1.33;0.85;;;;;;;;;;10368793;28;20896;-90
2022/03/31 15:41:15;;;;;;;1.90;1.20;;;;;;;;;;10389620;28;20485;-90
2022/03/31 15:46:18;;;;;;;1.60;1.10;;;;;;;;;;10376278;28;20394;-90
2022/03/31 15:51:21;;;;;;;1.10;0.82;;;;;;;;;;10364860;28;20917;-86
2022/03/31 15:56:23;;;;;;;2.50;0.90;;;;;;;;;;10354687;28;20907;-87
2022/03/31 16:01:25;;;;;;;2.20;1.00;;;;;;;;;;10362765;28;20426;-88
2022/03/31 16:06:28;;;;;;;0.98;0.80;;;;;;;;;;10349624;28;20453;-89
2022/03/31 16:11:30;;;;;;;1.20;1.00;;;;;;;;;;10346362;28;20440;-87
2022/03/31 16:16:32;;;;;;;1.48;0.95;;;;;;;;;;10341995;28;20478;-88
2022/03/31 16:21:36;;;;;;;1.10;1.00;;;;;;;;;;10342323;28;20435;-89
2022/03/31 16:26:38;;;;;;;1.42;1.02;;;;;;;;;;10352750;28;20418;-89
2022/03/31 16:31:40;;;;;;;2.27;1.00;;;;;;;;;;10338975;28;20509;-89
2022/03/31 16:36:44;;;;;;;1.30;0.83;;;;;;;;;;10340156;28;20496;-89
2022/03/31 16:41:47;;;;;;;1.27;1.00;;;;;;;;;;10337186;28;20417;-89
2022/03/31 16:46:49;;;;;;;1.30;1.20;;;;;;;;;;10331180;28;20446;-88
2022/03/31 16:51:53;;;;;;;1.60;1.30;;;;;;;;;;10351522;28;20511;-89
2022/03/31 16:56:58;;;;;;;1.67;1.30;;;;;;;;;;10350371;28;20539;-88
2022/03/31 17:02:00;;;;;;;1.50;1.40;;;;;;;;;;10352024;28;20404;-88
2022/03/31 17:07:03;;;;;;;1.48;1.30;;;;;;;;;;10342934;28;20478;-89
2022/03/31 17:12:05;;;;;;;2.30;1.85;;;;;;;;;;10338119;28;20461;-89
2022/03/31 17:17:07;;;;;;;2.88;1.80;;;;;;;;;;10339011;28;20419;-89
2022/03/31 17:22:11;;;;;;;2.15;1.75;;;;;;;;;;10346699;28;20553;-88
2022/03/31 17:27:14;;;;;;;42.47;18.98;;;;;;;;;;10348589;28;20516;-88
2022/03/31 17:32:16;;;;;;;4.57;3.10;;;;;;;;;;10344483;28;20423;-89
2022/03/31 17:37:19;;;;;;;3.38;3.00;;;;;;;;;;10346288;28;20419;-88
2022/03/31 17:42:21;;;;;;;11.73;10.52;;;;;;;;;;10337202;28;20507;-87
2022/03/31 17:47:23;;;;;;;5.72;5.15;;;;;;;;;;10357331;28;20530;-87
2022/03/31 17:52:27;;;;;;;5.53;4.60;;;;;;;;;;10362923;28;20496;-87
2022/03/31 17:57:29;;;;;;;14.35;8.43;;;;;;;;;;10367242;28;20509;-93
2022/03/31 18:02:33;;;;;;;23.10;17.83;;;;;;;;;;10359527;28;20486;-93
2022/03/31 18:07:36;;;;;;;10.77;9.03;;;;;;;;;;10363395;28;20450;-93
2022/03/31 18:12:41;;;;;;;7.15;5.22;;;;;;;;;;10348315;28;20423;-92
2022/03/31 18:17:44;;;;;;;5.20;4.33;;;;;;;;;;10353657;28;20434;-92
2022/03/31 18:22:49;;;;;;;4.93;4.40;;;;;;;;;;10348912;28;20411;-92
2022/03/31 18:27:51;;;;;;;6.10;4.50;;;;;;;;;;10336134;28;20425;-92
2022/03/31 18:38:16;;;;;;;9.87;7.23;;;;;;;;;;10332507;28;20397;-93
2022/03/31 18:43:19;;;;;;;9.35;6.72;;;;;;;;;;10343160;28;21348;-92
2022/03/31 18:48:21;;;;;;;8.50;6.37;;;;;;;;;;10342546;28;20434;-92
2022/03/31 18:53:26;;;;;;;7.50;6.10;;;;;;;;;;10347188;28;20494;-93
2022/03/31 18:58:28;;;;;;;7.75;6.10;;;;;;;;;;10347107;28;20421;-92
2022/03/31 19:03:30;;;;;;;8.25;6.85;;;;;;;;;;10351332;28;20405;-92
2022/03/31 19:08:33;;;;;;;9.17;8.27;;;;;;;;;;10345225;28;20512;-93
2022/03/31 19:13:36;;;;;;;8.18;6.88;;;;;;;;;;10365921;28;20410;-93
2022/03/31 19:18:38;;;;;;;8.98;7.18;;;;;;;;;;10359538;28;20448;-93
2022/03/31 19:23:41;;;;;;;8.33;7.53;;;;;;;;;;10335285;28;20436;-93
2022/03/31 19:28:44;;;;;;;8.20;7.40;;;;;;;;;;10340572;28;20444;-94
2022/03/31 19:33:49;;;;;;;9.65;8.13;;;;;;;;;;10340671;28;20425;-94
2022/03/31 19:38:53;;;;;;;8.77;7.87;;;;;;;;;;10338503;28;20411;-94
2022/03/31 19:43:57;;;;;;;9.98;8.95;;;;;;;;;;10348879;28;20411;-94
2022/03/31 19:48:59;;;;;;;10.57;9.20;;;;;;;;;;10335710;28;20460;-94
2022/03/31 19:54:04;;;;;;;9.82;8.82;;;;;;;;;;10338892;28;20487;-93
2022/03/31 19:59:08;;;;;;;11.83;9.30;;;;;;;;;;10346560;28;21025;-92
2022/03/31 20:04:11;;;;;;;11.23;9.15;;;;;;;;;;10340555;28;20466;-93
2022/03/31 20:09:15;;;;;;;9.85;8.70;;;;;;;;;;10340734;28;20431;-93
2022/03/31 20:14:16;;;;;;;10.17;8.17;;;;;;;;;;10346115;28;20930;-93
2022/03/31 20:19:18;;;;;;;10.27;8.80;;;;;;;;;;10335113;28;20969;-93
2022/03/31 20:24:24;;;;;;;9.70;8.70;;;;;;;;;;10344766;28;20413;-93
2022/03/31 20:29:29;;;;;;;9.90;8.50;;;;;;;;;;10342787;28;20929;-93
2022/03/31 20:34:32;;;;;;;10.93;8.57;;;;;;;;;;10346393;28;20453;-94
2022/03/31 20:39:36;;;;;;;9.40;8.43;;;;;;;;;;10343903;28;20409;-93
2022/03/31 20:44:39;;;;;;;17.20;14.70;;;;;;;;;;10347227;28;20434;-94
2022/03/31 20:49:40;;;;;;;16.20;14.13;;;;;;;;;;10345087;28;20929;-94
2022/03/31 20:54:44;;;;;;;21.25;18.50;;;;;;;;;;10341204;28;20474;-93
2022/03/31 20:59:46;;;;;;;15.05;13.45;;;;;;;;;;10342172;28;20473;-93
2022/03/31 21:04:48;;;;;;;17.10;15.02;;;;;;;;;;10347076;28;20464;-94
2022/03/31 21:09:52;;;;;;;20.52;16.80;;;;;;;;;;10347370;28;20503;-93
2022/03/31 21:14:54;;;;;;;32.53;28.17;;;;;;;;;;10344106;28;20501;-93
2022/03/31 21:19:58;;;;;;;19.80;17.73;;;;;;;;;;10322990;28;20508;-94
2022/03/31 21:25:02;;;;;;;13.23;11.88;;;;;;;;;;10346210;28;20463;-93
2022/03/31 21:30:05;;;;;;;13.03;11.40;;;;;;;;;;10342914;28;20426;-93
2022/03/31 21:35:10;;;;;;;10.70;9.60;;;;;;;;;;10339333;28;20424;-93
2022/03/31 21:40:14;;;;;;;10.32;9.30;;;;;;;;;;10332965;28;20431;-92
2022/03/31 21:45:16;;;;;;;12.97;11.63;;;;;;;;;;10339605;28;20741;-93
2022/03/31 21:50:20;;;;;;;12.50;11.25;;;;;;;;;;10343184;28;21070;-92
2022/03/31 21:55:26;;;;;;;12.48;11.27;;;;;;;;;;10342313;28;20518;-92
2022/03/31 22:01:03;;;;;;;14.33;12.83;;;;;;;;;;10340833;28;20439;-91
2022/03/31 22:06:05;;;;;;;13.48;12.07;;;;;;;;;;10220040;28;20879;-92
2022/03/31 22:16:28;;;;;;;14.43;12.97;;;;;;;;;;10349386;28;20470;-92
2022/03/31 22:21:30;;;;;;;14.52;13.02;;;;;;;;;;10346630;28;20736;-93
2022/03/31 22:26:34;;;;;;;13.88;12.45;;;;;;;;;;10359962;28;20440;-94
2022/03/31 22:31:37;;;;;;;14.45;13.05;;;;;;;;;;10389699;28;20661;-91
2022/03/31 22:36:39;;;;;;;13.48;12.07;;;;;;;;;;10365541;28;20503;-92
2022/03/31 22:41:43;;;;;;;13.88;12.18;;;;;;;;;;10382792;28;20450;-92
2022/03/31 22:46:45;;;;;;;17.33;14.87;;;;;;;;;;10398704;28;20410;-91
2022/03/31 22:51:47;;;;;;;15.47;13.80;;;;;;;;;;10375920;28;20795;-92
2022/03/31 22:56:51;;;;;;;13.53;12.13;;;;;;;;;;10370402;28;20421;-93
2022/03/31 23:01:53;;;;;;;13.25;11.93;;;;;;;;;;10364817;28;20703;-93
2022/03/31 23:06:56;;;;;;;12.35;11.13;;;;;;;;;;10367671;28;20477;-92
2022/03/31 23:12:02;;;;;;;14.13;12.43;;;;;;;;;;10368985;28;20510;-93
2022/03/31 23:17:04;;;;;;;15.02;13.52;;;;;;;;;;10364834;28;20421;-93
2022/03/31 23:22:06;;;;;;;13.93;12.63;;;;;;;;;;10365731;28;20501;-93
2022/03/31 23:27:09;;;;;;;14.00;12.60;;;;;;;;;;10350243;28;20414;-93
2022/03/31 23:32:12;;;;;;;13.45;12.18;;;;;;;;;;10367287;28;20429;-92
2022/03/31 23:37:14;;;;;;;12.57;11.38;;;;;;;;;;10364599;28;20439;-92
2022/03/31 23:42:17;;;;;;;13.23;11.93;;;;;;;;;;10367225;28;20493;-92
2022/03/31 23:47:19;;;;;;;13.55;12.18;;;;;;;;;;10384885;28;20419;-91
2022/03/31 23:52:21;;;;;;;13.48;12.18;;;;;;;;;;10377353;28;20580;-92
2022/03/31 23:57:25;;;;;;;13.93;12.53;;;;;;;;;;10364728;28;20447;-92
